sensor_id;sensor_type;location;lat;lon;timestamp;temperature;humidity
6879;DHT22;3478;51.462;7.338;2023-01-26T00:01:52;0.10;99.90
6879;DHT22;3478;51.462;7.338;2023-01-26T00:06:54;0.00;99.90
6879;DHT22;3478;51.462;7.338;2023-01-26T00:11:56;0.10;99.90
6879;DHT22;3478;51.462;7.338;2023-01-26T00:16:59;0.20;99.90
6879;DHT22;3478;51.462;7.338;2023-01-26T00:22:01;0.10;99.90
6879;DHT22;3478;51.462;7.338;2023-01-26T00:27:03;0.10;99.90
6879;DHT22;3478;51.462;7.338;2023-01-26T00:32:06;0.10;99.90
6879;DHT22;3478;51.462;7.338;2023-01-26T00:37:08;0.20;99.90
6879;DHT22;3478;51.462;7.338;2023-01-26T00:42:10;0.10;99.90
6879;DHT22;3478;51.462;7.338;2023-01-26T00:47:15;0.20;99.90
6879;DHT22;3478;51.462;7.338;2023-01-26T00:52:17;0.20;99.90
6879;DHT22;3478;51.462;7.338;2023-01-26T00:57:18;0.10;99.90
6879;DHT22;3478;51.462;7.338;2023-01-26T01:02:22;0.10;99.90
6879;DHT22;3478;51.462;7.338;2023-01-26T01:07:23;0.00;99.90
6879;DHT22;3478;51.462;7.338;2023-01-26T01:12:25;0.10;99.90
6879;DHT22;3478;51.462;7.338;2023-01-26T01:17:28;0.20;99.90
6879;DHT22;3478;51.462;7.338;2023-01-26T01:22:30;0.20;99.90
6879;DHT22;3478;51.462;7.338;2023-01-26T01:27:32;-0.10;99.90
6879;DHT22;3478;51.462;7.338;2023-01-26T01:32:35;0.00;99.90
6879;DHT22;3478;51.462;7.338;2023-01-26T01:37:39;0.00;99.90
6879;DHT22;3478;51.462;7.338;2023-01-26T01:42:46;0.10;99.90
6879;DHT22;3478;51.462;7.338;2023-01-26T01:47:49;0.20;99.90
6879;DHT22;3478;51.462;7.338;2023-01-26T01:52:52;0.20;99.90
6879;DHT22;3478;51.462;7.338;2023-01-26T01:57:57;0.20;99.90
6879;DHT22;3478;51.462;7.338;2023-01-26T02:03:04;0.10;99.90
6879;DHT22;3478;51.462;7.338;2023-01-26T02:08:15;0.20;99.90
6879;DHT22;3478;51.462;7.338;2023-01-26T02:13:19;0.30;99.90
6879;DHT22;3478;51.462;7.338;2023-01-26T02:18:22;0.40;99.90
6879;DHT22;3478;51.462;7.338;2023-01-26T02:23:34;0.30;99.90
6879;DHT22;3478;51.462;7.338;2023-01-26T02:28:40;0.30;99.90
6879;DHT22;3478;51.462;7.338;2023-01-26T02:33:42;0.30;99.90
6879;DHT22;3478;51.462;7.338;2023-01-26T02:38:50;0.30;99.90
6879;DHT22;3478;51.462;7.338;2023-01-26T02:43:55;0.20;99.90
6879;DHT22;3478;51.462;7.338;2023-01-26T02:48:57;0.30;99.90
6879;DHT22;3478;51.462;7.338;2023-01-26T02:54:15;0.10;99.90
6879;DHT22;3478;51.462;7.338;2023-01-26T02:59:32;0.10;99.90
6879;DHT22;3478;51.462;7.338;2023-01-26T03:04:34;0.20;99.90
6879;DHT22;3478;51.462;7.338;2023-01-26T03:09:36;0.20;99.90
6879;DHT22;3478;51.462;7.338;2023-01-26T03:14:39;0.10;99.90
6879;DHT22;3478;51.462;7.338;2023-01-26T03:19:41;0.20;99.90
6879;DHT22;3478;51.462;7.338;2023-01-26T03:25:00;0.30;99.90
6879;DHT22;3478;51.462;7.338;2023-01-26T03:30:21;0.40;99.90
6879;DHT22;3478;51.462;7.338;2023-01-26T03:35:23;0.40;99.90
6879;DHT22;3478;51.462;7.338;2023-01-26T03:40:24;0.30;99.90
6879;DHT22;3478;51.462;7.338;2023-01-26T03:45:45;0.30;99.90
6879;DHT22;3478;51.462;7.338;2023-01-26T03:51:04;0.30;99.90
6879;DHT22;3478;51.462;7.338;2023-01-26T03:56:23;0.30;99.90
6879;DHT22;3478;51.462;7.338;2023-01-26T04:01:28;0.30;99.90
6879;DHT22;3478;51.462;7.338;2023-01-26T04:06:33;0.30;99.90
6879;DHT22;3478;51.462;7.338;2023-01-26T04:11:52;0.30;99.90
6879;DHT22;3478;51.462;7.338;2023-01-26T04:16:55;0.20;99.90
6879;DHT22;3478;51.462;7.338;2023-01-26T04:22:15;0.20;99.90
6879;DHT22;3478;51.462;7.338;2023-01-26T04:27:17;0.30;99.90
6879;DHT22;3478;51.462;7.338;2023-01-26T04:32:20;0.40;99.90
6879;DHT22;3478;51.462;7.338;2023-01-26T04:37:22;0.30;99.90
6879;DHT22;3478;51.462;7.338;2023-01-26T04:42:23;0.20;99.90
6879;DHT22;3478;51.462;7.338;2023-01-26T04:47:27;0.20;99.90
6879;DHT22;3478;51.462;7.338;2023-01-26T04:52:28;0.20;99.90
6879;DHT22;3478;51.462;7.338;2023-01-26T04:57:30;0.30;99.90
6879;DHT22;3478;51.462;7.338;2023-01-26T05:02:33;0.50;99.90
6879;DHT22;3478;51.462;7.338;2023-01-26T05:07:35;0.50;99.90
6879;DHT22;3478;51.462;7.338;2023-01-26T05:12:37;0.50;99.90
6879;DHT22;3478;51.462;7.338;2023-01-26T05:17:43;0.60;99.90
6879;DHT22;3478;51.462;7.338;2023-01-26T05:22:45;0.70;99.90
6879;DHT22;3478;51.462;7.338;2023-01-26T05:27:47;0.70;99.90
6879;DHT22;3478;51.462;7.338;2023-01-26T05:32:50;0.70;99.90
6879;DHT22;3478;51.462;7.338;2023-01-26T05:37:52;0.80;99.90
6879;DHT22;3478;51.462;7.338;2023-01-26T05:42:55;0.80;99.90
6879;DHT22;3478;51.462;7.338;2023-01-26T05:47:58;0.90;99.90
6879;DHT22;3478;51.462;7.338;2023-01-26T05:53:00;0.90;99.90
6879;DHT22;3478;51.462;7.338;2023-01-26T05:58:02;0.80;99.90
6879;DHT22;3478;51.462;7.338;2023-01-26T06:03:06;0.80;99.90
6879;DHT22;3478;51.462;7.338;2023-01-26T06:08:08;0.60;99.90
6879;DHT22;3478;51.462;7.338;2023-01-26T06:13:10;0.60;99.90
6879;DHT22;3478;51.462;7.338;2023-01-26T06:18:13;0.60;99.90
6879;DHT22;3478;51.462;7.338;2023-01-26T06:23:15;0.60;99.90
6879;DHT22;3478;51.462;7.338;2023-01-26T06:28:17;0.50;99.90
6879;DHT22;3478;51.462;7.338;2023-01-26T06:33:20;0.60;99.90
6879;DHT22;3478;51.462;7.338;2023-01-26T06:38:22;0.70;99.90
6879;DHT22;3478;51.462;7.338;2023-01-26T06:43:23;0.80;99.90
6879;DHT22;3478;51.462;7.338;2023-01-26T06:48:28;0.80;99.90
6879;DHT22;3478;51.462;7.338;2023-01-26T06:53:33;0.80;99.90
6879;DHT22;3478;51.462;7.338;2023-01-26T06:58:37;0.80;99.90
6879;DHT22;3478;51.462;7.338;2023-01-26T07:03:40;0.80;99.90
6879;DHT22;3478;51.462;7.338;2023-01-26T07:08:42;0.70;99.90
6879;DHT22;3478;51.462;7.338;2023-01-26T07:13:44;0.80;99.90
6879;DHT22;3478;51.462;7.338;2023-01-26T07:18:48;0.80;99.90
6879;DHT22;3478;51.462;7.338;2023-01-26T07:23:50;0.80;99.90
6879;DHT22;3478;51.462;7.338;2023-01-26T07:28:52;0.80;99.90
6879;DHT22;3478;51.462;7.338;2023-01-26T07:33:56;0.80;99.90
6879;DHT22;3478;51.462;7.338;2023-01-26T07:38:57;0.80;99.90
6879;DHT22;3478;51.462;7.338;2023-01-26T07:43:59;0.90;99.90
6879;DHT22;3478;51.462;7.338;2023-01-26T07:49:02;0.80;99.90
6879;DHT22;3478;51.462;7.338;2023-01-26T07:54:04;0.80;99.90
6879;DHT22;3478;51.462;7.338;2023-01-26T07:59:06;0.90;99.90
6879;DHT22;3478;51.462;7.338;2023-01-26T08:04:09;0.90;99.90
6879;DHT22;3478;51.462;7.338;2023-01-26T08:09:11;0.80;99.90
6879;DHT22;3478;51.462;7.338;2023-01-26T08:14:13;0.80;99.90
6879;DHT22;3478;51.462;7.338;2023-01-26T08:19:17;0.90;99.90
6879;DHT22;3478;51.462;7.338;2023-01-26T08:24:18;0.90;99.90
6879;DHT22;3478;51.462;7.338;2023-01-26T08:29:20;1.00;99.90
6879;DHT22;3478;51.462;7.338;2023-01-26T08:34:23;1.00;99.90
6879;DHT22;3478;51.462;7.338;2023-01-26T08:39:26;1.00;99.90
6879;DHT22;3478;51.462;7.338;2023-01-26T08:44:27;1.00;99.90
6879;DHT22;3478;51.462;7.338;2023-01-26T08:49:31;1.00;99.90
6879;DHT22;3478;51.462;7.338;2023-01-26T08:54:32;0.80;99.90
6879;DHT22;3478;51.462;7.338;2023-01-26T08:59:34;1.00;99.90
6879;DHT22;3478;51.462;7.338;2023-01-26T09:04:37;0.90;99.90
6879;DHT22;3478;51.462;7.338;2023-01-26T09:09:39;1.00;99.90
6879;DHT22;3478;51.462;7.338;2023-01-26T09:14:41;1.00;99.90
6879;DHT22;3478;51.462;7.338;2023-01-26T09:19:44;1.00;99.90
6879;DHT22;3478;51.462;7.338;2023-01-26T09:24:46;1.00;99.90
6879;DHT22;3478;51.462;7.338;2023-01-26T09:29:48;1.10;99.90
6879;DHT22;3478;51.462;7.338;2023-01-26T09:34:51;1.20;99.90
6879;DHT22;3478;51.462;7.338;2023-01-26T09:39:53;1.30;99.90
6879;DHT22;3478;51.462;7.338;2023-01-26T09:45:02;1.30;99.90
6879;DHT22;3478;51.462;7.338;2023-01-26T09:50:12;1.40;99.90
6879;DHT22;3478;51.462;7.338;2023-01-26T09:55:18;1.30;99.90
6879;DHT22;3478;51.462;7.338;2023-01-26T10:00:25;1.40;99.90
6879;DHT22;3478;51.462;7.338;2023-01-26T10:05:46;1.20;99.90
6879;DHT22;3478;51.462;7.338;2023-01-26T10:10:53;1.30;99.90
6879;DHT22;3478;51.462;7.338;2023-01-26T10:15:58;1.30;99.90
6879;DHT22;3478;51.462;7.338;2023-01-26T10:21:04;1.40;99.90
6879;DHT22;3478;51.462;7.338;2023-01-26T10:26:11;1.40;99.90
6879;DHT22;3478;51.462;7.338;2023-01-26T10:31:15;1.40;99.90
6879;DHT22;3478;51.462;7.338;2023-01-26T10:36:19;1.50;99.90
6879;DHT22;3478;51.462;7.338;2023-01-26T10:41:30;1.40;99.90
6879;DHT22;3478;51.462;7.338;2023-01-26T10:46:34;1.40;99.90
6879;DHT22;3478;51.462;7.338;2023-01-26T10:51:39;1.40;99.90
6879;DHT22;3478;51.462;7.338;2023-01-26T10:56:46;1.30;99.90
6879;DHT22;3478;51.462;7.338;2023-01-26T11:01:53;1.40;99.90
6879;DHT22;3478;51.462;7.338;2023-01-26T11:07:19;1.50;99.90
6879;DHT22;3478;51.462;7.338;2023-01-26T11:12:24;1.40;99.90
6879;DHT22;3478;51.462;7.338;2023-01-26T11:17:30;1.40;99.90
6879;DHT22;3478;51.462;7.338;2023-01-26T11:22:44;1.40;99.90
6879;DHT22;3478;51.462;7.338;2023-01-26T11:27:56;1.50;99.90
6879;DHT22;3478;51.462;7.338;2023-01-26T11:33:09;1.50;99.90
6879;DHT22;3478;51.462;7.338;2023-01-26T11:38:29;1.60;99.90
6879;DHT22;3478;51.462;7.338;2023-01-26T11:44:02;1.80;99.90
6879;DHT22;3478;51.462;7.338;2023-01-26T11:49:19;1.80;99.90
6879;DHT22;3478;51.462;7.338;2023-01-26T11:54:37;1.80;99.90
6879;DHT22;3478;51.462;7.338;2023-01-26T11:59:47;1.70;99.90
6879;DHT22;3478;51.462;7.338;2023-01-26T12:04:50;1.70;99.90
6879;DHT22;3478;51.462;7.338;2023-01-26T12:09:57;1.80;99.90
6879;DHT22;3478;51.462;7.338;2023-01-26T12:15:03;1.90;99.90
6879;DHT22;3478;51.462;7.338;2023-01-26T12:20:20;1.90;99.90
6879;DHT22;3478;51.462;7.338;2023-01-26T12:25:31;1.80;99.90
6879;DHT22;3478;51.462;7.338;2023-01-26T12:30:40;1.80;99.90
6879;DHT22;3478;51.462;7.338;2023-01-26T12:36:14;1.80;99.90
6879;DHT22;3478;51.462;7.338;2023-01-26T12:41:28;1.80;99.90
6879;DHT22;3478;51.462;7.338;2023-01-26T12:46:37;1.80;99.90
6879;DHT22;3478;51.462;7.338;2023-01-26T12:51:44;1.80;99.90
6879;DHT22;3478;51.462;7.338;2023-01-26T12:56:51;1.80;99.90
6879;DHT22;3478;51.462;7.338;2023-01-26T13:01:54;1.80;99.90
6879;DHT22;3478;51.462;7.338;2023-01-26T13:07:03;1.90;99.90
6879;DHT22;3478;51.462;7.338;2023-01-26T13:12:44;1.90;99.90
6879;DHT22;3478;51.462;7.338;2023-01-26T13:17:49;1.90;99.90
6879;DHT22;3478;51.462;7.338;2023-01-26T13:22:52;2.00;99.90
6879;DHT22;3478;51.462;7.338;2023-01-26T13:27:57;2.00;99.90
6879;DHT22;3478;51.462;7.338;2023-01-26T13:33:15;2.00;99.90
6879;DHT22;3478;51.462;7.338;2023-01-26T13:38:25;1.90;99.90
6879;DHT22;3478;51.462;7.338;2023-01-26T13:43:34;1.90;99.90
6879;DHT22;3478;51.462;7.338;2023-01-26T13:48:44;2.00;99.90
6879;DHT22;3478;51.462;7.338;2023-01-26T13:53:51;2.10;99.90
6879;DHT22;3478;51.462;7.338;2023-01-26T13:59:13;2.10;99.90
6879;DHT22;3478;51.462;7.338;2023-01-26T14:04:16;2.10;99.90
6879;DHT22;3478;51.462;7.338;2023-01-26T14:09:19;2.10;99.90
6879;DHT22;3478;51.462;7.338;2023-01-26T14:14:25;2.10;99.90
6879;DHT22;3478;51.462;7.338;2023-01-26T14:19:27;2.10;99.90
6879;DHT22;3478;51.462;7.338;2023-01-26T14:24:32;2.00;99.90
6879;DHT22;3478;51.462;7.338;2023-01-26T14:29:38;2.10;99.90
6879;DHT22;3478;51.462;7.338;2023-01-26T14:34:50;2.20;99.90
6879;DHT22;3478;51.462;7.338;2023-01-26T14:40:10;2.30;99.90
6879;DHT22;3478;51.462;7.338;2023-01-26T14:45:27;2.30;99.90
6879;DHT22;3478;51.462;7.338;2023-01-26T14:50:30;2.40;99.90
6879;DHT22;3478;51.462;7.338;2023-01-26T14:55:33;2.40;99.90
6879;DHT22;3478;51.462;7.338;2023-01-26T15:00:38;2.50;99.90
6879;DHT22;3478;51.462;7.338;2023-01-26T15:05:40;2.50;99.90
6879;DHT22;3478;51.462;7.338;2023-01-26T15:10:45;2.40;99.90
6879;DHT22;3478;51.462;7.338;2023-01-26T15:16:05;2.50;99.90
6879;DHT22;3478;51.462;7.338;2023-01-26T15:21:13;2.60;99.90
6879;DHT22;3478;51.462;7.338;2023-01-26T15:26:24;2.70;99.90
6879;DHT22;3478;51.462;7.338;2023-01-26T15:31:31;2.80;99.90
6879;DHT22;3478;51.462;7.338;2023-01-26T15:36:45;2.80;99.90
6879;DHT22;3478;51.462;7.338;2023-01-26T15:42:06;2.70;99.90
6879;DHT22;3478;51.462;7.338;2023-01-26T15:47:13;2.70;99.90
6879;DHT22;3478;51.462;7.338;2023-01-26T15:52:16;2.80;99.90
6879;DHT22;3478;51.462;7.338;2023-01-26T15:57:18;2.90;99.90
6879;DHT22;3478;51.462;7.338;2023-01-26T16:02:21;3.00;99.90
6879;DHT22;3478;51.462;7.338;2023-01-26T16:07:23;3.00;99.90
6879;DHT22;3478;51.462;7.338;2023-01-26T16:12:25;3.10;99.90
6879;DHT22;3478;51.462;7.338;2023-01-26T16:17:28;3.10;99.90
6879;DHT22;3478;51.462;7.338;2023-01-26T16:22:30;3.20;99.90
6879;DHT22;3478;51.462;7.338;2023-01-26T16:27:32;3.20;99.90
6879;DHT22;3478;51.462;7.338;2023-01-26T16:32:35;3.20;99.90
6879;DHT22;3478;51.462;7.338;2023-01-26T16:37:37;3.10;99.90
6879;DHT22;3478;51.462;7.338;2023-01-26T16:42:41;3.10;99.90
6879;DHT22;3478;51.462;7.338;2023-01-26T16:47:48;3.00;99.90
6879;DHT22;3478;51.462;7.338;2023-01-26T16:52:51;3.00;99.90
6879;DHT22;3478;51.462;7.338;2023-01-26T16:57:53;3.00;99.90
6879;DHT22;3478;51.462;7.338;2023-01-26T17:02:56;3.00;99.90
6879;DHT22;3478;51.462;7.338;2023-01-26T17:07:58;3.10;99.90
6879;DHT22;3478;51.462;7.338;2023-01-26T17:13:00;3.10;99.90
6879;DHT22;3478;51.462;7.338;2023-01-26T17:18:03;3.10;99.90
6879;DHT22;3478;51.462;7.338;2023-01-26T17:23:05;3.10;99.90
6879;DHT22;3478;51.462;7.338;2023-01-26T17:28:07;3.00;99.90
6879;DHT22;3478;51.462;7.338;2023-01-26T17:33:10;3.00;99.90
6879;DHT22;3478;51.462;7.338;2023-01-26T17:38:12;3.20;99.90
6879;DHT22;3478;51.462;7.338;2023-01-26T17:43:14;3.20;99.90
6879;DHT22;3478;51.462;7.338;2023-01-26T17:48:17;3.30;99.90
6879;DHT22;3478;51.462;7.338;2023-01-26T17:53:19;3.30;99.90
6879;DHT22;3478;51.462;7.338;2023-01-26T17:58:23;3.30;99.90
6879;DHT22;3478;51.462;7.338;2023-01-26T18:03:26;3.30;99.90
6879;DHT22;3478;51.462;7.338;2023-01-26T18:08:28;3.40;99.90
6879;DHT22;3478;51.462;7.338;2023-01-26T18:13:31;3.40;99.90
6879;DHT22;3478;51.462;7.338;2023-01-26T18:18:35;3.40;99.90
6879;DHT22;3478;51.462;7.338;2023-01-26T18:23:36;3.40;99.90
6879;DHT22;3478;51.462;7.338;2023-01-26T18:28:38;3.40;99.90
6879;DHT22;3478;51.462;7.338;2023-01-26T18:33:42;3.50;99.90
6879;DHT22;3478;51.462;7.338;2023-01-26T18:38:48;3.50;99.90
6879;DHT22;3478;51.462;7.338;2023-01-26T18:43:51;3.40;99.90
6879;DHT22;3478;51.462;7.338;2023-01-26T18:48:55;3.40;99.90
6879;DHT22;3478;51.462;7.338;2023-01-26T18:54:00;3.30;99.90
6879;DHT22;3478;51.462;7.338;2023-01-26T18:59:03;3.30;99.90
6879;DHT22;3478;51.462;7.338;2023-01-26T19:04:07;3.30;99.90
6879;DHT22;3478;51.462;7.338;2023-01-26T19:09:09;3.30;99.90
6879;DHT22;3478;51.462;7.338;2023-01-26T19:14:11;3.30;99.90
6879;DHT22;3478;51.462;7.338;2023-01-26T19:19:14;3.30;99.90
6879;DHT22;3478;51.462;7.338;2023-01-26T19:24:16;3.30;99.90
6879;DHT22;3478;51.462;7.338;2023-01-26T19:29:17;3.30;99.90
6879;DHT22;3478;51.462;7.338;2023-01-26T19:34:21;3.30;99.90
6879;DHT22;3478;51.462;7.338;2023-01-26T19:39:22;3.40;99.90
6879;DHT22;3478;51.462;7.338;2023-01-26T19:44:24;3.40;99.90
6879;DHT22;3478;51.462;7.338;2023-01-26T19:49:28;3.40;99.90
6879;DHT22;3478;51.462;7.338;2023-01-26T19:54:29;3.50;99.90
6879;DHT22;3478;51.462;7.338;2023-01-26T19:59:31;3.50;99.90
6879;DHT22;3478;51.462;7.338;2023-01-26T20:04:34;3.60;99.90
6879;DHT22;3478;51.462;7.338;2023-01-26T20:09:36;3.70;99.90
6879;DHT22;3478;51.462;7.338;2023-01-26T20:14:39;3.70;99.90
6879;DHT22;3478;51.462;7.338;2023-01-26T20:19:42;3.60;99.90
6879;DHT22;3478;51.462;7.338;2023-01-26T20:24:44;3.60;99.90
6879;DHT22;3478;51.462;7.338;2023-01-26T20:29:46;3.70;99.90
6879;DHT22;3478;51.462;7.338;2023-01-26T20:34:49;3.80;99.90
6879;DHT22;3478;51.462;7.338;2023-01-26T20:39:51;3.80;99.90
6879;DHT22;3478;51.462;7.338;2023-01-26T20:44:53;3.80;99.90
6879;DHT22;3478;51.462;7.338;2023-01-26T20:49:59;3.90;99.90
6879;DHT22;3478;51.462;7.338;2023-01-26T20:55:01;4.00;99.90
6879;DHT22;3478;51.462;7.338;2023-01-26T21:00:04;4.00;99.90
6879;DHT22;3478;51.462;7.338;2023-01-26T21:05:09;4.00;99.90
6879;DHT22;3478;51.462;7.338;2023-01-26T21:10:10;4.00;99.90
6879;DHT22;3478;51.462;7.338;2023-01-26T21:15:12;4.10;99.90
6879;DHT22;3478;51.462;7.338;2023-01-26T21:20:16;4.00;99.90
6879;DHT22;3478;51.462;7.338;2023-01-26T21:25:17;4.10;99.90
6879;DHT22;3478;51.462;7.338;2023-01-26T21:30:19;4.10;99.90
6879;DHT22;3478;51.462;7.338;2023-01-26T21:35:22;4.20;99.90
6879;DHT22;3478;51.462;7.338;2023-01-26T21:40:24;4.20;99.90
6879;DHT22;3478;51.462;7.338;2023-01-26T21:45:26;4.20;99.90
6879;DHT22;3478;51.462;7.338;2023-01-26T21:50:47;4.10;99.90
6879;DHT22;3478;51.462;7.338;2023-01-26T21:56:06;4.10;99.90
6879;DHT22;3478;51.462;7.338;2023-01-26T22:01:09;4.20;99.90
6879;DHT22;3478;51.462;7.338;2023-01-26T22:06:12;4.10;99.90
6879;DHT22;3478;51.462;7.338;2023-01-26T22:11:14;4.20;99.90
6879;DHT22;3478;51.462;7.338;2023-01-26T22:16:16;4.10;99.90
6879;DHT22;3478;51.462;7.338;2023-01-26T22:21:20;4.10;99.90
6879;DHT22;3478;51.462;7.338;2023-01-26T22:26:22;4.00;99.90
6879;DHT22;3478;51.462;7.338;2023-01-26T22:31:25;3.90;99.90
6879;DHT22;3478;51.462;7.338;2023-01-26T22:36:29;3.80;99.90
6879;DHT22;3478;51.462;7.338;2023-01-26T22:41:31;3.80;99.90
6879;DHT22;3478;51.462;7.338;2023-01-26T22:46:34;3.80;99.90
6879;DHT22;3478;51.462;7.338;2023-01-26T22:51:37;3.90;99.90
6879;DHT22;3478;51.462;7.338;2023-01-26T22:56:40;3.90;99.90
6879;DHT22;3478;51.462;7.338;2023-01-26T23:01:42;3.90;99.90
6879;DHT22;3478;51.462;7.338;2023-01-26T23:06:45;3.90;99.90
6879;DHT22;3478;51.462;7.338;2023-01-26T23:11:47;3.90;99.90
6879;DHT22;3478;51.462;7.338;2023-01-26T23:16:49;4.00;99.90
6879;DHT22;3478;51.462;7.338;2023-01-26T23:21:52;4.00;99.90
6879;DHT22;3478;51.462;7.338;2023-01-26T23:26:54;4.00;99.90
6879;DHT22;3478;51.462;7.338;2023-01-26T23:31:55;4.00;99.90
6879;DHT22;3478;51.462;7.338;2023-01-26T23:36:58;4.00;99.90
6879;DHT22;3478;51.462;7.338;2023-01-26T23:42:00;4.00;99.90
6879;DHT22;3478;51.462;7.338;2023-01-26T23:47:02;4.00;99.90
6879;DHT22;3478;51.462;7.338;2023-01-26T23:52:05;4.00;99.90
6879;DHT22;3478;51.462;7.338;2023-01-26T23:57:07;4.00;99.90
